sensor_id;sensor_type;location;lat;lon;timestamp;temperature;humidity
55436;DHT22;41307;53.142;6.430;2022-08-01T00:01:53;18.00;99.90
55436;DHT22;41307;53.142;6.430;2022-08-01T00:04:19;18.00;99.90
55436;DHT22;41307;53.142;6.430;2022-08-01T00:06:45;18.00;99.90
55436;DHT22;41307;53.142;6.430;2022-08-01T00:09:10;18.10;99.90
55436;DHT22;41307;53.142;6.430;2022-08-01T00:11:36;18.10;99.90
55436;DHT22;41307;53.142;6.430;2022-08-01T00:14:02;18.10;99.90
55436;DHT22;41307;53.142;6.430;2022-08-01T00:16:28;18.00;99.90
55436;DHT22;41307;53.142;6.430;2022-08-01T00:18:54;18.10;99.90
55436;DHT22;41307;53.142;6.430;2022-08-01T00:21:21;18.00;99.90
55436;DHT22;41307;53.142;6.430;2022-08-01T00:23:47;18.00;99.90
55436;DHT22;41307;53.142;6.430;2022-08-01T00:26:13;18.00;99.90
55436;DHT22;41307;53.142;6.430;2022-08-01T00:28:40;18.00;99.90
55436;DHT22;41307;53.142;6.430;2022-08-01T00:31:06;18.00;99.90
55436;DHT22;41307;53.142;6.430;2022-08-01T00:33:32;18.00;99.90
55436;DHT22;41307;53.142;6.430;2022-08-01T00:35:58;17.90;99.90
55436;DHT22;41307;53.142;6.430;2022-08-01T00:38:23;18.00;99.90
55436;DHT22;41307;53.142;6.430;2022-08-01T00:40:49;18.00;99.90
55436;DHT22;41307;53.142;6.430;2022-08-01T00:43:15;17.90;99.90
55436;DHT22;41307;53.142;6.430;2022-08-01T00:45:41;18.00;99.90
55436;DHT22;41307;53.142;6.430;2022-08-01T00:48:07;18.00;99.90
55436;DHT22;41307;53.142;6.430;2022-08-01T00:50:33;18.00;99.90
55436;DHT22;41307;53.142;6.430;2022-08-01T00:53:00;17.90;99.90
55436;DHT22;41307;53.142;6.430;2022-08-01T00:55:29;17.90;99.90
55436;DHT22;41307;53.142;6.430;2022-08-01T00:57:56;17.90;99.90
55436;DHT22;41307;53.142;6.430;2022-08-01T01:00:23;17.90;99.90
55436;DHT22;41307;53.142;6.430;2022-08-01T01:02:48;17.90;99.90
55436;DHT22;41307;53.142;6.430;2022-08-01T01:05:14;17.90;99.90
55436;DHT22;41307;53.142;6.430;2022-08-01T01:07:56;17.90;99.90
55436;DHT22;41307;53.142;6.430;2022-08-01T01:13:31;17.90;99.90
55436;DHT22;41307;53.142;6.430;2022-08-01T01:15:59;17.90;99.90
55436;DHT22;41307;53.142;6.430;2022-08-01T01:18:34;17.80;99.90
55436;DHT22;41307;53.142;6.430;2022-08-01T01:29:57;17.90;99.90
55436;DHT22;41307;53.142;6.430;2022-08-01T01:32:23;17.80;99.90
55436;DHT22;41307;53.142;6.430;2022-08-01T01:34:54;17.80;99.90
55436;DHT22;41307;53.142;6.430;2022-08-01T01:37:23;17.80;99.90
55436;DHT22;41307;53.142;6.430;2022-08-01T01:39:51;17.80;99.90
55436;DHT22;41307;53.142;6.430;2022-08-01T01:42:18;17.70;99.90
55436;DHT22;41307;53.142;6.430;2022-08-01T01:44:48;17.80;99.90
55436;DHT22;41307;53.142;6.430;2022-08-01T01:47:17;17.70;99.90
55436;DHT22;41307;53.142;6.430;2022-08-01T01:49:45;17.70;99.90
55436;DHT22;41307;53.142;6.430;2022-08-01T01:52:13;17.70;99.90
55436;DHT22;41307;53.142;6.430;2022-08-01T01:54:45;17.60;99.90
55436;DHT22;41307;53.142;6.430;2022-08-01T01:57:13;17.60;99.90
55436;DHT22;41307;53.142;6.430;2022-08-01T01:59:41;17.60;99.90
55436;DHT22;41307;53.142;6.430;2022-08-01T02:02:08;17.60;99.90
55436;DHT22;41307;53.142;6.430;2022-08-01T02:04:40;17.50;99.90
55436;DHT22;41307;53.142;6.430;2022-08-01T02:07:10;17.50;99.90
55436;DHT22;41307;53.142;6.430;2022-08-01T02:09:40;17.50;99.90
55436;DHT22;41307;53.142;6.430;2022-08-01T02:12:10;17.40;99.90
55436;DHT22;41307;53.142;6.430;2022-08-01T02:14:37;17.40;99.90
55436;DHT22;41307;53.142;6.430;2022-08-01T02:17:06;17.40;99.90
55436;DHT22;41307;53.142;6.430;2022-08-01T02:19:33;17.40;99.90
55436;DHT22;41307;53.142;6.430;2022-08-01T02:22:21;17.40;99.90
55436;DHT22;41307;53.142;6.430;2022-08-01T02:24:56;17.40;99.90
55436;DHT22;41307;53.142;6.430;2022-08-01T02:27:28;17.40;99.90
55436;DHT22;41307;53.142;6.430;2022-08-01T02:30:01;17.30;99.90
55436;DHT22;41307;53.142;6.430;2022-08-01T02:32:37;17.30;99.90
55436;DHT22;41307;53.142;6.430;2022-08-01T02:35:06;17.30;99.90
55436;DHT22;41307;53.142;6.430;2022-08-01T02:37:34;17.30;99.90
55436;DHT22;41307;53.142;6.430;2022-08-01T02:40:02;17.30;99.90
55436;DHT22;41307;53.142;6.430;2022-08-01T02:42:29;17.20;99.90
55436;DHT22;41307;53.142;6.430;2022-08-01T02:44:57;17.20;99.90
55436;DHT22;41307;53.142;6.430;2022-08-01T02:47:23;17.20;99.90
55436;DHT22;41307;53.142;6.430;2022-08-01T02:49:52;17.20;99.90
55436;DHT22;41307;53.142;6.430;2022-08-01T02:52:20;17.20;99.90
55436;DHT22;41307;53.142;6.430;2022-08-01T02:54:49;17.20;99.90
55436;DHT22;41307;53.142;6.430;2022-08-01T02:57:17;17.20;99.90
55436;DHT22;41307;53.142;6.430;2022-08-01T02:59:44;17.10;99.90
55436;DHT22;41307;53.142;6.430;2022-08-01T03:02:11;17.10;99.90
55436;DHT22;41307;53.142;6.430;2022-08-01T03:04:39;17.10;99.90
55436;DHT22;41307;53.142;6.430;2022-08-01T03:07:08;17.10;99.90
55436;DHT22;41307;53.142;6.430;2022-08-01T03:09:38;17.10;99.90
55436;DHT22;41307;53.142;6.430;2022-08-01T03:12:08;17.10;99.90
55436;DHT22;41307;53.142;6.430;2022-08-01T03:14:37;17.10;99.90
55436;DHT22;41307;53.142;6.430;2022-08-01T03:17:05;17.10;99.90
55436;DHT22;41307;53.142;6.430;2022-08-01T03:19:31;17.00;99.90
55436;DHT22;41307;53.142;6.430;2022-08-01T03:21:58;17.00;99.90
55436;DHT22;41307;53.142;6.430;2022-08-01T03:24:26;17.00;99.90
55436;DHT22;41307;53.142;6.430;2022-08-01T03:26:53;17.00;99.90
55436;DHT22;41307;53.142;6.430;2022-08-01T03:29:24;16.90;99.90
55436;DHT22;41307;53.142;6.430;2022-08-01T03:31:51;17.00;99.90
55436;DHT22;41307;53.142;6.430;2022-08-01T03:34:18;16.90;99.90
55436;DHT22;41307;53.142;6.430;2022-08-01T03:37:08;16.90;99.90
55436;DHT22;41307;53.142;6.430;2022-08-01T03:39:52;16.90;99.90
55436;DHT22;41307;53.142;6.430;2022-08-01T03:42:24;16.90;99.90
55436;DHT22;41307;53.142;6.430;2022-08-01T03:45:02;16.90;99.90
55436;DHT22;41307;53.142;6.430;2022-08-01T03:47:33;16.90;99.90
55436;DHT22;41307;53.142;6.430;2022-08-01T03:50:02;16.80;99.90
55436;DHT22;41307;53.142;6.430;2022-08-01T03:52:30;16.90;99.90
55436;DHT22;41307;53.142;6.430;2022-08-01T03:55:05;16.80;99.90
55436;DHT22;41307;53.142;6.430;2022-08-01T03:57:33;16.80;99.90
55436;DHT22;41307;53.142;6.430;2022-08-01T04:00:00;16.70;99.90
55436;DHT22;41307;53.142;6.430;2022-08-01T04:02:29;16.80;99.90
55436;DHT22;41307;53.142;6.430;2022-08-01T04:04:55;16.70;99.90
55436;DHT22;41307;53.142;6.430;2022-08-01T04:07:28;16.80;99.90
55436;DHT22;41307;53.142;6.430;2022-08-01T04:09:54;16.70;99.90
55436;DHT22;41307;53.142;6.430;2022-08-01T04:12:20;16.80;99.90
55436;DHT22;41307;53.142;6.430;2022-08-01T04:14:46;16.70;99.90
55436;DHT22;41307;53.142;6.430;2022-08-01T04:17:12;16.70;99.90
55436;DHT22;41307;53.142;6.430;2022-08-01T04:19:37;16.70;99.90
55436;DHT22;41307;53.142;6.430;2022-08-01T04:22:04;16.70;99.90
55436;DHT22;41307;53.142;6.430;2022-08-01T04:24:31;16.70;99.90
55436;DHT22;41307;53.142;6.430;2022-08-01T04:27:00;16.70;99.90
55436;DHT22;41307;53.142;6.430;2022-08-01T04:29:27;16.70;99.90
55436;DHT22;41307;53.142;6.430;2022-08-01T04:31:57;16.80;99.90
55436;DHT22;41307;53.142;6.430;2022-08-01T04:34:26;16.70;99.90
55436;DHT22;41307;53.142;6.430;2022-08-01T04:36:55;16.70;99.90
55436;DHT22;41307;53.142;6.430;2022-08-01T04:39:23;16.70;99.90
55436;DHT22;41307;53.142;6.430;2022-08-01T04:41:53;16.60;99.90
55436;DHT22;41307;53.142;6.430;2022-08-01T04:44:23;16.60;99.90
55436;DHT22;41307;53.142;6.430;2022-08-01T04:46:50;16.70;99.90
55436;DHT22;41307;53.142;6.430;2022-08-01T04:49:16;16.60;99.90
55436;DHT22;41307;53.142;6.430;2022-08-01T04:51:55;16.70;99.90
55436;DHT22;41307;53.142;6.430;2022-08-01T04:54:26;16.70;99.90
55436;DHT22;41307;53.142;6.430;2022-08-01T04:56:53;16.70;99.90
55436;DHT22;41307;53.142;6.430;2022-08-01T04:59:21;16.70;99.90
55436;DHT22;41307;53.142;6.430;2022-08-01T05:02:09;16.80;99.90
55436;DHT22;41307;53.142;6.430;2022-08-01T05:04:36;16.70;99.90
55436;DHT22;41307;53.142;6.430;2022-08-01T05:07:02;16.70;99.90
55436;DHT22;41307;53.142;6.430;2022-08-01T05:09:29;16.70;99.90
55436;DHT22;41307;53.142;6.430;2022-08-01T05:11:57;16.70;99.90
55436;DHT22;41307;53.142;6.430;2022-08-01T05:14:25;16.70;99.90
55436;DHT22;41307;53.142;6.430;2022-08-01T05:16:51;16.70;99.90
55436;DHT22;41307;53.142;6.430;2022-08-01T05:19:17;16.70;99.90
55436;DHT22;41307;53.142;6.430;2022-08-01T05:21:43;16.70;99.90
55436;DHT22;41307;53.142;6.430;2022-08-01T05:24:08;16.60;99.90
55436;DHT22;41307;53.142;6.430;2022-08-01T05:26:34;16.70;99.90
55436;DHT22;41307;53.142;6.430;2022-08-01T05:29:00;16.60;99.90
55436;DHT22;41307;53.142;6.430;2022-08-01T05:31:26;16.60;99.90
55436;DHT22;41307;53.142;6.430;2022-08-01T05:33:51;16.60;99.90
55436;DHT22;41307;53.142;6.430;2022-08-01T05:36:17;16.60;99.90
55436;DHT22;41307;53.142;6.430;2022-08-01T05:38:43;16.60;99.90
55436;DHT22;41307;53.142;6.430;2022-08-01T05:41:10;16.60;99.90
55436;DHT22;41307;53.142;6.430;2022-08-01T05:43:35;16.60;99.90
55436;DHT22;41307;53.142;6.430;2022-08-01T05:46:01;16.60;99.90
55436;DHT22;41307;53.142;6.430;2022-08-01T05:48:27;16.60;99.90
55436;DHT22;41307;53.142;6.430;2022-08-01T05:50:53;16.60;99.90
55436;DHT22;41307;53.142;6.430;2022-08-01T05:53:20;16.60;99.90
55436;DHT22;41307;53.142;6.430;2022-08-01T05:55:45;16.60;99.90
55436;DHT22;41307;53.142;6.430;2022-08-01T05:58:11;16.60;99.90
55436;DHT22;41307;53.142;6.430;2022-08-01T06:00:37;16.60;99.90
55436;DHT22;41307;53.142;6.430;2022-08-01T06:03:03;16.70;99.90
55436;DHT22;41307;53.142;6.430;2022-08-01T06:05:28;16.70;99.90
55436;DHT22;41307;53.142;6.430;2022-08-01T06:07:54;16.70;99.90
55436;DHT22;41307;53.142;6.430;2022-08-01T06:10:20;16.70;99.90
55436;DHT22;41307;53.142;6.430;2022-08-01T06:12:45;16.70;99.90
55436;DHT22;41307;53.142;6.430;2022-08-01T06:15:11;16.70;99.90
55436;DHT22;41307;53.142;6.430;2022-08-01T06:17:37;16.70;99.90
55436;DHT22;41307;53.142;6.430;2022-08-01T06:20:04;16.70;99.90
55436;DHT22;41307;53.142;6.430;2022-08-01T06:22:31;16.80;99.90
55436;DHT22;41307;53.142;6.430;2022-08-01T06:24:57;16.70;99.90
55436;DHT22;41307;53.142;6.430;2022-08-01T06:27:23;16.70;99.90
55436;DHT22;41307;53.142;6.430;2022-08-01T06:29:50;16.70;99.90
55436;DHT22;41307;53.142;6.430;2022-08-01T06:32:21;16.80;99.90
55436;DHT22;41307;53.142;6.430;2022-08-01T06:34:52;16.80;99.90
55436;DHT22;41307;53.142;6.430;2022-08-01T06:37:17;16.80;99.90
55436;DHT22;41307;53.142;6.430;2022-08-01T06:39:43;16.90;99.90
55436;DHT22;41307;53.142;6.430;2022-08-01T06:42:09;17.00;99.90
55436;DHT22;41307;53.142;6.430;2022-08-01T06:44:35;17.00;99.90
55436;DHT22;41307;53.142;6.430;2022-08-01T06:47:01;17.00;99.90
55436;DHT22;41307;53.142;6.430;2022-08-01T06:49:27;17.10;99.90
55436;DHT22;41307;53.142;6.430;2022-08-01T06:51:52;17.20;99.90
55436;DHT22;41307;53.142;6.430;2022-08-01T06:54:18;17.30;99.90
55436;DHT22;41307;53.142;6.430;2022-08-01T06:56:44;17.40;99.90
55436;DHT22;41307;53.142;6.430;2022-08-01T06:59:09;17.50;99.90
55436;DHT22;41307;53.142;6.430;2022-08-01T07:01:35;17.60;99.90
55436;DHT22;41307;53.142;6.430;2022-08-01T07:04:02;17.60;99.90
55436;DHT22;41307;53.142;6.430;2022-08-01T07:06:28;17.80;99.90
55436;DHT22;41307;53.142;6.430;2022-08-01T07:08:53;17.80;99.90
55436;DHT22;41307;53.142;6.430;2022-08-01T07:11:20;18.10;99.90
55436;DHT22;41307;53.142;6.430;2022-08-01T07:13:46;18.30;99.90
55436;DHT22;41307;53.142;6.430;2022-08-01T07:16:13;18.50;99.90
55436;DHT22;41307;53.142;6.430;2022-08-01T07:18:40;18.70;99.90
55436;DHT22;41307;53.142;6.430;2022-08-01T07:21:05;19.00;99.90
55436;DHT22;41307;53.142;6.430;2022-08-01T07:23:31;18.90;99.90
55436;DHT22;41307;53.142;6.430;2022-08-01T07:25:57;19.00;99.90
55436;DHT22;41307;53.142;6.430;2022-08-01T07:28:23;19.10;99.90
55436;DHT22;41307;53.142;6.430;2022-08-01T07:30:49;19.20;99.90
55436;DHT22;41307;53.142;6.430;2022-08-01T07:33:14;19.20;99.90
55436;DHT22;41307;53.142;6.430;2022-08-01T07:35:40;19.40;99.90
55436;DHT22;41307;53.142;6.430;2022-08-01T07:38:06;19.80;99.90
55436;DHT22;41307;53.142;6.430;2022-08-01T07:40:32;20.10;99.90
55436;DHT22;41307;53.142;6.430;2022-08-01T07:42:58;20.30;99.90
55436;DHT22;41307;53.142;6.430;2022-08-01T07:45:24;20.30;99.90
55436;DHT22;41307;53.142;6.430;2022-08-01T07:47:49;20.40;99.90
55436;DHT22;41307;53.142;6.430;2022-08-01T07:50:16;20.70;99.90
55436;DHT22;41307;53.142;6.430;2022-08-01T07:52:42;20.80;99.90
55436;DHT22;41307;53.142;6.430;2022-08-01T07:55:09;21.30;99.90
55436;DHT22;41307;53.142;6.430;2022-08-01T07:57:35;22.10;99.90
55436;DHT22;41307;53.142;6.430;2022-08-01T08:00:05;23.00;99.90
55436;DHT22;41307;53.142;6.430;2022-08-01T08:02:32;23.50;99.90
55436;DHT22;41307;53.142;6.430;2022-08-01T08:04:57;24.00;99.90
55436;DHT22;41307;53.142;6.430;2022-08-01T08:07:23;24.30;99.90
55436;DHT22;41307;53.142;6.430;2022-08-01T08:09:49;24.70;99.90
55436;DHT22;41307;53.142;6.430;2022-08-01T08:12:15;25.10;99.90
55436;DHT22;41307;53.142;6.430;2022-08-01T08:14:40;25.50;99.90
55436;DHT22;41307;53.142;6.430;2022-08-01T08:17:06;25.90;99.90
55436;DHT22;41307;53.142;6.430;2022-08-01T08:19:32;26.10;99.90
55436;DHT22;41307;53.142;6.430;2022-08-01T08:22:02;26.30;99.90
55436;DHT22;41307;53.142;6.430;2022-08-01T08:24:27;26.40;99.90
55436;DHT22;41307;53.142;6.430;2022-08-01T08:26:56;26.40;99.90
55436;DHT22;41307;53.142;6.430;2022-08-01T08:29:22;26.50;99.90
55436;DHT22;41307;53.142;6.430;2022-08-01T08:31:48;26.50;99.90
55436;DHT22;41307;53.142;6.430;2022-08-01T08:34:14;26.40;99.90
55436;DHT22;41307;53.142;6.430;2022-08-01T08:36:41;26.40;99.90
55436;DHT22;41307;53.142;6.430;2022-08-01T08:39:07;26.50;99.90
55436;DHT22;41307;53.142;6.430;2022-08-01T08:41:33;26.60;99.90
55436;DHT22;41307;53.142;6.430;2022-08-01T08:44:03;27.00;99.90
55436;DHT22;41307;53.142;6.430;2022-08-01T08:46:31;26.30;99.90
55436;DHT22;41307;53.142;6.430;2022-08-01T08:49:01;26.20;99.90
55436;DHT22;41307;53.142;6.430;2022-08-01T08:51:27;26.40;99.90
55436;DHT22;41307;53.142;6.430;2022-08-01T08:53:55;26.50;99.90
55436;DHT22;41307;53.142;6.430;2022-08-01T08:56:23;26.30;99.90
55436;DHT22;41307;53.142;6.430;2022-08-01T08:58:51;26.20;99.90
55436;DHT22;41307;53.142;6.430;2022-08-01T09:01:16;26.10;99.90
55436;DHT22;41307;53.142;6.430;2022-08-01T09:03:44;25.80;99.90
55436;DHT22;41307;53.142;6.430;2022-08-01T09:06:10;25.60;99.90
55436;DHT22;41307;53.142;6.430;2022-08-01T09:08:36;25.70;99.90
55436;DHT22;41307;53.142;6.430;2022-08-01T09:11:03;25.40;99.90
55436;DHT22;41307;53.142;6.430;2022-08-01T09:13:29;25.10;99.90
55436;DHT22;41307;53.142;6.430;2022-08-01T09:15:55;24.50;99.90
55436;DHT22;41307;53.142;6.430;2022-08-01T09:18:39;24.10;99.90
55436;DHT22;41307;53.142;6.430;2022-08-01T09:23:39;23.80;99.90
55436;DHT22;41307;53.142;6.430;2022-08-01T09:26:53;23.80;99.90
55436;DHT22;41307;53.142;6.430;2022-08-01T09:28:54;24.30;99.90
55436;DHT22;41307;53.142;6.430;2022-08-01T09:31:20;24.70;99.90
55436;DHT22;41307;53.142;6.430;2022-08-01T09:33:49;24.80;99.90
55436;DHT22;41307;53.142;6.430;2022-08-01T09:36:15;24.90;99.90
55436;DHT22;41307;53.142;6.430;2022-08-01T09:38:41;24.80;99.90
55436;DHT22;41307;53.142;6.430;2022-08-01T09:41:16;24.80;99.90
55436;DHT22;41307;53.142;6.430;2022-08-01T09:43:47;25.10;98.60
55436;DHT22;41307;53.142;6.430;2022-08-01T09:46:14;25.30;97.70
55436;DHT22;41307;53.142;6.430;2022-08-01T09:48:57;25.30;99.90
55436;DHT22;41307;53.142;6.430;2022-08-01T09:51:37;25.10;99.90
55436;DHT22;41307;53.142;6.430;2022-08-01T09:54:05;24.70;97.40
55436;DHT22;41307;53.142;6.430;2022-08-01T09:56:38;24.60;99.90
55436;DHT22;41307;53.142;6.430;2022-08-01T09:59:05;24.80;99.90
55436;DHT22;41307;53.142;6.430;2022-08-01T10:01:48;25.00;99.90
55436;DHT22;41307;53.142;6.430;2022-08-01T10:04:19;25.40;95.40
55436;DHT22;41307;53.142;6.430;2022-08-01T10:06:50;25.60;98.20
55436;DHT22;41307;53.142;6.430;2022-08-01T10:09:44;25.50;93.40
55436;DHT22;41307;53.142;6.430;2022-08-01T10:12:15;25.30;89.40
55436;DHT22;41307;53.142;6.430;2022-08-01T10:14:46;25.40;96.40
55436;DHT22;41307;53.142;6.430;2022-08-01T10:17:16;25.50;95.30
55436;DHT22;41307;53.142;6.430;2022-08-01T10:19:42;25.60;93.10
55436;DHT22;41307;53.142;6.430;2022-08-01T10:22:11;25.90;93.30
55436;DHT22;41307;53.142;6.430;2022-08-01T10:24:39;26.10;92.00
55436;DHT22;41307;53.142;6.430;2022-08-01T10:27:10;26.00;91.20
55436;DHT22;41307;53.142;6.430;2022-08-01T10:32:04;25.60;88.30
55436;DHT22;41307;53.142;6.430;2022-08-01T10:34:58;25.70;90.10
55436;DHT22;41307;53.142;6.430;2022-08-01T10:37:25;25.40;87.70
55436;DHT22;41307;53.142;6.430;2022-08-01T10:39:53;25.60;90.30
55436;DHT22;41307;53.142;6.430;2022-08-01T10:42:19;25.80;90.00
55436;DHT22;41307;53.142;6.430;2022-08-01T10:44:45;26.10;89.80
55436;DHT22;41307;53.142;6.430;2022-08-01T10:47:20;26.10;86.60
55436;DHT22;41307;53.142;6.430;2022-08-01T10:50:11;26.00;84.60
55436;DHT22;41307;53.142;6.430;2022-08-01T10:52:39;25.90;82.80
55436;DHT22;41307;53.142;6.430;2022-08-01T10:55:06;26.20;86.80
55436;DHT22;41307;53.142;6.430;2022-08-01T10:57:46;26.30;84.40
55436;DHT22;41307;53.142;6.430;2022-08-01T11:00:20;26.30;81.70
55436;DHT22;41307;53.142;6.430;2022-08-01T11:02:58;26.10;77.40
55436;DHT22;41307;53.142;6.430;2022-08-01T11:05:27;26.10;80.20
55436;DHT22;41307;53.142;6.430;2022-08-01T11:07:54;25.90;82.10
55436;DHT22;41307;53.142;6.430;2022-08-01T11:12:55;25.70;78.70
55436;DHT22;41307;53.142;6.430;2022-08-01T11:15:22;25.60;82.00
55436;DHT22;41307;53.142;6.430;2022-08-01T11:17:53;25.70;82.30
55436;DHT22;41307;53.142;6.430;2022-08-01T11:30:42;25.90;77.70
55436;DHT22;41307;53.142;6.430;2022-08-01T11:33:09;25.20;78.90
55436;DHT22;41307;53.142;6.430;2022-08-01T11:38:27;24.90;78.40
55436;DHT22;41307;53.142;6.430;2022-08-01T11:44:01;25.20;75.60
55436;DHT22;41307;53.142;6.430;2022-08-01T11:54:49;25.30;78.00
55436;DHT22;41307;53.142;6.430;2022-08-01T11:57:21;25.10;76.40
55436;DHT22;41307;53.142;6.430;2022-08-01T11:59:55;24.60;76.50
55436;DHT22;41307;53.142;6.430;2022-08-01T12:02:32;24.50;77.80
55436;DHT22;41307;53.142;6.430;2022-08-01T12:07:31;24.40;77.20
55436;DHT22;41307;53.142;6.430;2022-08-01T12:09:59;24.20;76.10
55436;DHT22;41307;53.142;6.430;2022-08-01T12:12:26;24.10;77.50
55436;DHT22;41307;53.142;6.430;2022-08-01T12:14:54;23.90;77.50
55436;DHT22;41307;53.142;6.430;2022-08-01T12:17:38;23.80;76.90
55436;DHT22;41307;53.142;6.430;2022-08-01T12:20:06;24.00;77.40
55436;DHT22;41307;53.142;6.430;2022-08-01T12:22:32;23.80;80.00
55436;DHT22;41307;53.142;6.430;2022-08-01T12:25:13;23.60;80.30
55436;DHT22;41307;53.142;6.430;2022-08-01T12:27:40;23.70;78.30
55436;DHT22;41307;53.142;6.430;2022-08-01T12:30:08;23.80;81.80
55436;DHT22;41307;53.142;6.430;2022-08-01T12:32:37;23.80;79.90
55436;DHT22;41307;53.142;6.430;2022-08-01T12:35:29;23.90;77.60
55436;DHT22;41307;53.142;6.430;2022-08-01T12:40:34;24.00;81.10
55436;DHT22;41307;53.142;6.430;2022-08-01T12:43:02;24.00;78.50
55436;DHT22;41307;53.142;6.430;2022-08-01T12:45:32;24.00;79.70
55436;DHT22;41307;53.142;6.430;2022-08-01T12:47:59;24.10;80.90
55436;DHT22;41307;53.142;6.430;2022-08-01T12:50:27;24.10;78.70
55436;DHT22;41307;53.142;6.430;2022-08-01T12:52:55;24.00;78.60
55436;DHT22;41307;53.142;6.430;2022-08-01T12:55:23;24.00;79.70
55436;DHT22;41307;53.142;6.430;2022-08-01T12:58:03;23.90;77.20
55436;DHT22;41307;53.142;6.430;2022-08-01T13:00:29;23.80;76.70
55436;DHT22;41307;53.142;6.430;2022-08-01T13:03:13;23.70;78.30
55436;DHT22;41307;53.142;6.430;2022-08-01T13:08:13;23.70;77.80
55436;DHT22;41307;53.142;6.430;2022-08-01T13:10:40;23.70;78.10
55436;DHT22;41307;53.142;6.430;2022-08-01T13:13:07;23.60;78.70
55436;DHT22;41307;53.142;6.430;2022-08-01T13:15:35;23.50;78.90
55436;DHT22;41307;53.142;6.430;2022-08-01T13:18:22;23.60;79.50
55436;DHT22;41307;53.142;6.430;2022-08-01T13:20:49;23.50;78.00
55436;DHT22;41307;53.142;6.430;2022-08-01T13:23:16;23.50;78.90
55436;DHT22;41307;53.142;6.430;2022-08-01T13:25:48;23.50;79.20
55436;DHT22;41307;53.142;6.430;2022-08-01T13:28:18;23.60;78.50
55436;DHT22;41307;53.142;6.430;2022-08-01T13:33:25;23.40;78.10
55436;DHT22;41307;53.142;6.430;2022-08-01T13:35:55;23.10;78.90
55436;DHT22;41307;53.142;6.430;2022-08-01T13:38:21;23.10;79.90
55436;DHT22;41307;53.142;6.430;2022-08-01T13:41:07;23.00;80.80
55436;DHT22;41307;53.142;6.430;2022-08-01T13:43:34;22.90;81.30
55436;DHT22;41307;53.142;6.430;2022-08-01T13:46:00;22.90;83.30
55436;DHT22;41307;53.142;6.430;2022-08-01T13:48:30;22.80;80.30
55436;DHT22;41307;53.142;6.430;2022-08-01T13:50:55;22.70;81.10
55436;DHT22;41307;53.142;6.430;2022-08-01T13:53:21;22.60;82.30
55436;DHT22;41307;53.142;6.430;2022-08-01T13:55:47;22.50;83.50
55436;DHT22;41307;53.142;6.430;2022-08-01T13:58:12;22.50;83.60
55436;DHT22;41307;53.142;6.430;2022-08-01T14:00:38;22.70;84.20
55436;DHT22;41307;53.142;6.430;2022-08-01T14:03:04;22.70;83.60
55436;DHT22;41307;53.142;6.430;2022-08-01T14:05:30;22.70;83.90
55436;DHT22;41307;53.142;6.430;2022-08-01T14:07:55;22.60;82.50
55436;DHT22;41307;53.142;6.430;2022-08-01T14:10:21;22.40;82.90
55436;DHT22;41307;53.142;6.430;2022-08-01T14:12:47;22.30;82.20
55436;DHT22;41307;53.142;6.430;2022-08-01T14:15:13;22.20;82.10
55436;DHT22;41307;53.142;6.430;2022-08-01T14:17:39;22.10;83.90
55436;DHT22;41307;53.142;6.430;2022-08-01T14:20:05;22.10;84.20
55436;DHT22;41307;53.142;6.430;2022-08-01T14:22:31;22.10;84.10
55436;DHT22;41307;53.142;6.430;2022-08-01T14:24:56;22.10;85.90
55436;DHT22;41307;53.142;6.430;2022-08-01T14:27:22;22.20;86.40
55436;DHT22;41307;53.142;6.430;2022-08-01T14:29:48;22.20;85.10
55436;DHT22;41307;53.142;6.430;2022-08-01T14:32:13;22.10;83.20
55436;DHT22;41307;53.142;6.430;2022-08-01T14:34:39;22.00;84.30
55436;DHT22;41307;53.142;6.430;2022-08-01T14:37:05;21.90;85.60
55436;DHT22;41307;53.142;6.430;2022-08-01T14:39:31;22.00;87.00
55436;DHT22;41307;53.142;6.430;2022-08-01T14:41:56;22.00;86.10
55436;DHT22;41307;53.142;6.430;2022-08-01T14:44:22;21.90;86.70
55436;DHT22;41307;53.142;6.430;2022-08-01T14:46:48;21.80;86.80
55436;DHT22;41307;53.142;6.430;2022-08-01T14:49:15;21.80;86.80
55436;DHT22;41307;53.142;6.430;2022-08-01T14:51:40;21.80;88.50
55436;DHT22;41307;53.142;6.430;2022-08-01T14:54:06;21.90;88.50
55436;DHT22;41307;53.142;6.430;2022-08-01T14:56:32;21.90;88.60
55436;DHT22;41307;53.142;6.430;2022-08-01T14:58:58;21.80;87.10
55436;DHT22;41307;53.142;6.430;2022-08-01T15:01:24;21.60;87.50
55436;DHT22;41307;53.142;6.430;2022-08-01T15:03:50;21.60;87.60
55436;DHT22;41307;53.142;6.430;2022-08-01T15:06:16;21.50;88.10
55436;DHT22;41307;53.142;6.430;2022-08-01T15:08:42;21.50;87.90
55436;DHT22;41307;53.142;6.430;2022-08-01T15:11:08;21.40;86.70
55436;DHT22;41307;53.142;6.430;2022-08-01T15:13:34;21.30;88.70
55436;DHT22;41307;53.142;6.430;2022-08-01T15:16:00;21.30;89.80
55436;DHT22;41307;53.142;6.430;2022-08-01T15:18:29;21.40;91.00
55436;DHT22;41307;53.142;6.430;2022-08-01T15:20:55;21.50;90.50
55436;DHT22;41307;53.142;6.430;2022-08-01T15:23:21;21.50;90.70
55436;DHT22;41307;53.142;6.430;2022-08-01T15:25:46;21.50;90.40
55436;DHT22;41307;53.142;6.430;2022-08-01T15:28:12;21.40;90.10
55436;DHT22;41307;53.142;6.430;2022-08-01T15:30:39;21.30;90.60
55436;DHT22;41307;53.142;6.430;2022-08-01T15:33:05;21.20;91.50
55436;DHT22;41307;53.142;6.430;2022-08-01T15:35:30;21.20;91.70
55436;DHT22;41307;53.142;6.430;2022-08-01T15:37:56;21.20;91.80
55436;DHT22;41307;53.142;6.430;2022-08-01T15:40:22;21.10;91.60
55436;DHT22;41307;53.142;6.430;2022-08-01T15:42:47;21.10;91.60
55436;DHT22;41307;53.142;6.430;2022-08-01T15:45:13;21.10;92.30
55436;DHT22;41307;53.142;6.430;2022-08-01T15:47:43;21.10;92.40
55436;DHT22;41307;53.142;6.430;2022-08-01T15:50:09;21.10;92.80
55436;DHT22;41307;53.142;6.430;2022-08-01T15:52:35;21.10;92.80
55436;DHT22;41307;53.142;6.430;2022-08-01T15:55:01;21.10;93.10
55436;DHT22;41307;53.142;6.430;2022-08-01T15:57:27;21.10;92.80
55436;DHT22;41307;53.142;6.430;2022-08-01T15:59:52;21.00;92.30
55436;DHT22;41307;53.142;6.430;2022-08-01T16:02:18;20.90;92.60
55436;DHT22;41307;53.142;6.430;2022-08-01T16:04:44;20.80;92.60
55436;DHT22;41307;53.142;6.430;2022-08-01T16:07:10;20.80;92.60
55436;DHT22;41307;53.142;6.430;2022-08-01T16:09:36;20.70;93.30
55436;DHT22;41307;53.142;6.430;2022-08-01T16:12:02;20.70;93.30
55436;DHT22;41307;53.142;6.430;2022-08-01T16:14:27;20.70;93.50
55436;DHT22;41307;53.142;6.430;2022-08-01T16:16:53;20.60;93.40
55436;DHT22;41307;53.142;6.430;2022-08-01T16:19:19;20.60;94.10
55436;DHT22;41307;53.142;6.430;2022-08-01T16:21:45;20.60;94.90
55436;DHT22;41307;53.142;6.430;2022-08-01T16:24:11;20.60;94.30
55436;DHT22;41307;53.142;6.430;2022-08-01T16:26:36;20.60;94.30
55436;DHT22;41307;53.142;6.430;2022-08-01T16:29:02;20.60;94.40
55436;DHT22;41307;53.142;6.430;2022-08-01T16:31:28;20.60;94.60